Time;durP1;ratioP1;P1;durP2;ratioP2;P2;SDS_P1;SDS_P2;PMS_P1;PMS_P2;Temp;Humidity;BMP_temperature;BMP_pressure;BME280_temperature;BME280_humidity;BME280_pressure;Samples;Min_cycle;Max_cycle;Signal;HPM_P1;HPM_P2
2022/11/26 00:02:18;;;;;;;42.88;17.10;;;7.10;99.90;;;;;;5050544;28;20422;-57
2022/11/26 00:04:44;;;;;;;40.42;16.90;;;7.10;99.90;;;;;;5049955;28;20417;-57
2022/11/26 00:07:13;;;;;;;34.63;15.95;;;7.20;99.90;;;;;;5049875;28;20459;-56
2022/11/26 00:09:41;;;;;;;36.63;16.05;;;7.10;99.90;;;;;;5050154;28;20425;-52
2022/11/26 00:12:16;;;;;;;36.72;14.93;;;7.20;99.90;;;;;;5050370;28;20817;-54
2022/11/26 00:14:43;;;;;;;43.63;16.50;;;7.20;99.90;;;;;;5050198;28;20467;-55
2022/11/26 00:17:12;;;;;;;42.97;16.33;;;7.10;99.90;;;;;;5049741;28;20924;-56
2022/11/26 00:19:39;;;;;;;44.42;15.57;;;7.10;99.90;;;;;;5049827;28;20409;-52
2022/11/26 00:22:06;;;;;;;38.25;15.68;;;7.10;99.90;;;;;;5049703;28;20479;-53
2022/11/26 00:24:33;;;;;;;42.95;16.55;;;7.10;99.90;;;;;;5050049;28;20807;-53
2022/11/26 00:27:01;;;;;;;37.80;15.88;;;7.10;99.90;;;;;;5053357;28;20426;-58
2022/11/26 00:29:27;;;;;;;41.17;15.85;;;7.00;99.90;;;;;;5063049;28;20430;-56
2022/11/26 00:31:54;;;;;;;36.88;15.50;;;7.00;99.90;;;;;;5073347;28;20415;-55
2022/11/26 00:34:21;;;;;;;42.97;16.02;;;6.90;99.90;;;;;;5073592;28;20412;-57
2022/11/26 00:36:48;;;;;;;39.00;15.38;;;7.00;99.90;;;;;;5073116;28;20426;-51
2022/11/26 00:39:19;;;;;;;36.63;15.68;;;7.00;99.90;;;;;;5073300;28;20498;-53
2022/11/26 00:41:49;;;;;;;39.70;15.55;;;7.00;99.90;;;;;;5073315;28;20423;-56
2022/11/26 00:44:20;;;;;;;39.27;14.97;;;7.00;99.90;;;;;;5073145;28;20411;-58
2022/11/26 00:46:46;;;;;;;41.13;15.63;;;7.00;99.90;;;;;;5072768;28;20419;-56
2022/11/26 00:49:13;;;;;;;43.47;14.40;;;7.10;99.90;;;;;;5072771;28;20477;-56
2022/11/26 00:51:41;;;;;;;37.55;14.52;;;7.10;99.90;;;;;;5073063;28;20416;-54
2022/11/26 00:54:12;;;;;;;37.37;14.73;;;7.10;99.90;;;;;;5073024;28;20473;-52
2022/11/26 00:56:39;;;;;;;37.05;14.40;;;7.20;99.90;;;;;;5071785;28;20419;-55
2022/11/26 00:59:06;;;;;;;41.97;15.15;;;7.20;99.90;;;;;;5061162;28;20440;-52
2022/11/26 01:01:34;;;;;;;38.47;14.53;;;7.20;99.90;;;;;;5052673;28;20424;-55
2022/11/26 01:04:01;;;;;;;35.70;14.98;;;7.20;99.90;;;;;;5052883;28;20791;-57
2022/11/26 01:06:32;;;;;;;40.63;15.40;;;7.30;99.90;;;;;;5052563;28;20823;-54
2022/11/26 01:08:59;;;;;;;36.90;14.32;;;7.20;99.90;;;;;;5052797;28;20421;-56
2022/11/26 01:11:25;;;;;;;38.10;15.32;;;7.30;99.90;;;;;;5052897;28;20471;-55
2022/11/26 01:13:54;;;;;;;38.47;15.32;;;7.30;99.90;;;;;;5052518;28;20892;-56
2022/11/26 01:16:23;;;;;;;36.35;14.73;;;7.20;99.90;;;;;;5052433;28;20483;-57
2022/11/26 01:18:52;;;;;;;33.00;14.13;;;7.30;99.90;;;;;;5052631;28;20409;-55
2022/11/26 01:21:19;;;;;;;34.13;14.35;;;7.30;99.90;;;;;;5052606;28;20769;-58
2022/11/26 01:23:46;;;;;;;30.25;13.32;;;7.40;99.90;;;;;;5052323;28;20459;-58
2022/11/26 01:26:15;;;;;;;38.00;15.27;;;7.30;99.90;;;;;;5052314;28;20490;-54
2022/11/26 01:28:42;;;;;;;36.42;14.60;;;7.20;99.90;;;;;;5061775;28;20508;-58
2022/11/26 01:31:15;;;;;;;34.80;14.45;;;7.20;99.90;;;;;;5072090;28;20916;-59
2022/11/26 01:33:42;;;;;;;32.90;13.70;;;7.30;99.90;;;;;;5071956;28;20415;-56
2022/11/26 01:36:22;;;;;;;34.80;13.43;;;7.30;99.90;;;;;;5071952;28;20415;-54
2022/11/26 01:38:48;;;;;;;33.67;14.23;;;7.30;99.90;;;;;;5071900;28;20407;-56
2022/11/26 01:41:23;;;;;;;34.87;13.73;;;7.30;99.90;;;;;;5071816;28;20411;-54
2022/11/26 01:43:52;;;;;;;35.07;13.80;;;7.20;99.90;;;;;;5071961;28;20463;-52
2022/11/26 01:46:21;;;;;;;35.75;13.73;;;7.30;99.90;;;;;;5072017;28;20537;-55
2022/11/26 01:48:49;;;;;;;35.50;13.57;;;7.30;99.90;;;;;;5072125;28;20530;-57
2022/11/26 01:51:20;;;;;;;31.40;12.98;;;7.20;99.90;;;;;;5071722;28;20864;-54
2022/11/26 01:53:51;;;;;;;34.72;12.70;;;7.10;99.90;;;;;;5072315;28;20548;-54
2022/11/26 01:56:28;;;;;;;39.00;14.20;;;7.20;99.90;;;;;;5071920;28;20412;-54
2022/11/26 01:59:00;;;;;;;30.83;13.30;;;7.20;99.90;;;;;;5060413;28;20479;-53
2022/11/26 02:01:27;;;;;;;31.92;13.20;;;7.20;99.90;;;;;;5051722;28;20405;-53
2022/11/26 02:04:01;;;;;;;37.88;14.07;;;7.10;99.90;;;;;;5051530;28;20413;-57
2022/11/26 02:06:32;;;;;;;29.17;12.88;;;7.00;99.90;;;;;;5051574;28;20783;-54
2022/11/26 02:09:00;;;;;;;29.17;12.68;;;7.10;99.90;;;;;;5051383;28;20418;-54
2022/11/26 02:11:27;;;;;;;34.63;13.27;;;7.20;99.90;;;;;;5051528;28;20421;-55
2022/11/26 02:13:58;;;;;;;34.55;13.63;;;7.20;99.90;;;;;;5051337;28;20419;-58
2022/11/26 02:16:43;;;;;;;34.85;12.90;;;7.00;99.90;;;;;;5051314;28;20507;-52
2022/11/26 02:19:41;;;;;;;33.65;12.70;;;7.00;99.90;;;;;;5051240;28;20880;-56
2022/11/26 02:22:23;;;;;;;34.30;13.17;;;7.00;99.90;;;;;;5051294;28;20788;-52
2022/11/26 02:24:58;;;;;;;38.22;13.75;;;6.80;99.90;;;;;;5051219;28;20417;-53
2022/11/26 02:27:50;;;;;;;32.72;12.95;;;6.80;99.90;;;;;;5058025;28;20415;-51
2022/11/26 02:30:19;;;;;;;38.30;13.85;;;6.80;99.90;;;;;;5059418;28;20913;-55
2022/11/26 02:32:56;;;;;;;33.38;14.73;;;6.60;99.90;;;;;;5071342;28;20469;-56
2022/11/26 02:35:31;;;;;;;40.40;15.10;;;6.60;99.90;;;;;;5070694;28;20494;-56
2022/11/26 02:38:01;;;;;;;40.70;14.30;;;6.50;99.90;;;;;;5071077;28;20502;-56
2022/11/26 02:40:28;;;;;;;36.80;14.25;;;6.50;99.90;;;;;;5071241;28;20461;-57
2022/11/26 02:42:55;;;;;;;45.40;14.55;;;6.50;99.90;;;;;;5071132;28;20423;-57
2022/11/26 02:45:27;;;;;;;35.70;13.25;;;6.50;99.90;;;;;;5070906;28;20416;-55
2022/11/26 02:47:57;;;;;;;36.92;14.80;;;6.40;99.90;;;;;;5071024;28;20416;-57
2022/11/26 02:50:27;;;;;;;39.88;14.48;;;6.40;99.90;;;;;;5070875;28;20782;-58
2022/11/26 02:52:56;;;;;;;44.55;16.23;;;6.30;99.90;;;;;;5070080;28;20813;-57
2022/11/26 02:55:27;;;;;;;42.57;15.47;;;6.20;99.90;;;;;;5070652;28;20411;-57
2022/11/26 02:57:54;;;;;;;46.15;15.80;;;6.20;99.90;;;;;;5062319;28;20419;-57
2022/11/26 03:00:22;;;;;;;44.58;16.27;;;6.20;99.90;;;;;;5055904;28;20471;-58
2022/11/26 03:02:54;;;;;;;34.72;14.73;;;6.20;99.90;;;;;;5050879;28;20413;-58
2022/11/26 03:05:21;;;;;;;38.30;15.68;;;6.30;99.90;;;;;;5050393;28;20429;-58
2022/11/26 03:07:50;;;;;;;40.13;15.35;;;6.30;99.90;;;;;;5050429;28;20776;-57
2022/11/26 03:10:19;;;;;;;47.17;17.75;;;6.20;99.90;;;;;;5050476;28;20789;-58
2022/11/26 03:12:46;;;;;;;51.83;17.45;;;6.10;99.90;;;;;;5050575;28;20966;-55
2022/11/26 03:15:12;;;;;;;37.28;15.02;;;6.10;99.90;;;;;;5050384;28;20904;-56
2022/11/26 03:17:40;;;;;;;43.13;16.15;;;6.20;99.90;;;;;;5050754;28;20421;-57
2022/11/26 03:20:08;;;;;;;42.55;16.52;;;6.10;99.90;;;;;;5050435;28;20417;-57
2022/11/26 03:22:35;;;;;;;46.53;17.60;;;6.10;99.90;;;;;;5050725;28;20424;-58
2022/11/26 03:25:02;;;;;;;41.05;17.38;;;6.10;99.90;;;;;;5050266;28;20904;-58
2022/11/26 03:27:29;;;;;;;45.17;17.60;;;6.10;99.90;;;;;;5058043;28;20483;-57
2022/11/26 03:29:55;;;;;;;45.47;16.97;;;6.00;99.90;;;;;;5062045;28;20427;-58
2022/11/26 03:32:22;;;;;;;39.45;16.42;;;6.00;99.90;;;;;;5070349;28;20419;-56
2022/11/26 03:34:50;;;;;;;45.60;17.25;;;6.10;99.90;;;;;;5070112;28;20461;-55
2022/11/26 03:37:17;;;;;;;48.63;17.60;;;5.90;99.90;;;;;;5070128;28;20415;-58
2022/11/26 03:39:44;;;;;;;48.10;18.97;;;5.90;99.90;;;;;;5070214;28;20454;-55
2022/11/26 03:42:11;;;;;;;44.20;18.20;;;5.90;99.90;;;;;;5070530;28;20537;-57
2022/11/26 03:44:37;;;;;;;39.03;17.40;;;5.90;99.90;;;;;;5070277;28;20430;-58
2022/11/26 03:47:04;;;;;;;49.97;20.58;;;5.90;99.90;;;;;;5070086;28;20890;-58
2022/11/26 03:49:31;;;;;;;50.42;20.77;;;5.90;99.90;;;;;;5070355;28;20427;-58
2022/11/26 03:51:59;;;;;;;59.07;22.90;;;5.90;99.90;;;;;;5070115;28;20504;-56
2022/11/26 03:54:26;;;;;;;59.42;23.38;;;5.80;99.90;;;;;;5070085;28;20424;-57
2022/11/26 03:56:52;;;;;;;55.33;22.90;;;5.80;99.90;;;;;;5067533;28;20498;-56
2022/11/26 03:59:19;;;;;;;57.10;23.38;;;5.80;99.90;;;;;;5058596;28;20417;-57
2022/11/26 04:01:46;;;;;;;68.68;24.08;;;5.90;99.90;;;;;;5050278;28;20414;-57
2022/11/26 04:04:12;;;;;;;65.50;24.60;;;5.80;99.90;;;;;;5051608;28;20412;-57
2022/11/26 04:06:39;;;;;;;58.83;23.75;;;5.80;99.90;;;;;;5053544;28;20421;-57
2022/11/26 04:09:07;;;;;;;57.97;23.40;;;5.80;99.90;;;;;;5053927;28;20425;-57
2022/11/26 04:11:34;;;;;;;60.08;23.55;;;5.80;99.90;;;;;;5054307;28;20425;-51
2022/11/26 04:14:01;;;;;;;60.35;23.60;;;5.80;99.90;;;;;;5053912;28;20490;-55
2022/11/26 04:16:27;;;;;;;58.80;22.30;;;5.80;99.90;;;;;;5053605;28;20410;-55
2022/11/26 04:18:54;;;;;;;53.80;22.17;;;5.80;99.90;;;;;;5053896;28;20807;-54
2022/11/26 04:21:24;;;;;;;61.65;22.80;;;5.80;99.90;;;;;;5053630;28;20421;-53
2022/11/26 04:23:51;;;;;;;49.85;21.30;;;5.80;99.90;;;;;;5053612;28;20409;-52
2022/11/26 04:26:19;;;;;;;57.03;21.40;;;5.80;99.90;;;;;;5053258;28;20949;-57
2022/11/26 04:28:45;;;;;;;55.22;21.75;;;5.80;99.90;;;;;;5063792;28;20490;-57
2022/11/26 04:31:13;;;;;;;53.03;22.13;;;5.90;99.90;;;;;;5073264;28;20427;-57
2022/11/26 04:33:39;;;;;;;62.03;22.55;;;5.80;99.90;;;;;;5073347;28;20423;-56
2022/11/26 04:36:06;;;;;;;57.28;21.40;;;5.80;99.90;;;;;;5072996;28;20415;-54
2022/11/26 04:38:33;;;;;;;56.20;22.38;;;5.80;99.90;;;;;;5073551;28;20468;-57
2022/11/26 04:40:59;;;;;;;58.60;21.98;;;5.70;99.90;;;;;;5073336;28;20408;-56
2022/11/26 04:43:27;;;;;;;58.45;22.95;;;5.70;99.90;;;;;;5073420;28;20567;-55
2022/11/26 04:45:54;;;;;;;57.20;22.65;;;5.70;99.90;;;;;;5072963;28;20461;-55
2022/11/26 04:48:21;;;;;;;57.70;22.58;;;5.70;99.90;;;;;;5073094;28;20829;-55
2022/11/26 04:50:49;;;;;;;59.97;22.33;;;5.60;99.90;;;;;;5073463;28;20427;-57
2022/11/26 04:53:20;;;;;;;55.83;21.70;;;5.70;99.90;;;;;;5073118;28;20415;-56
2022/11/26 04:55:48;;;;;;;52.45;21.05;;;5.60;99.90;;;;;;5073084;28;20423;-57
2022/11/26 04:58:15;;;;;;;62.42;22.70;;;5.70;99.90;;;;;;5064416;28;20494;-57
2022/11/26 05:00:43;;;;;;;52.80;21.08;;;5.60;99.90;;;;;;5055100;28;21027;-55
2022/11/26 05:03:10;;;;;;;57.90;21.23;;;5.70;99.90;;;;;;5052711;28;20597;-58
2022/11/26 05:05:37;;;;;;;54.60;21.77;;;5.70;99.90;;;;;;5052891;28;20417;-57
2022/11/26 05:08:03;;;;;;;56.72;20.95;;;5.70;99.90;;;;;;5052675;28;20471;-57
2022/11/26 05:10:30;;;;;;;61.30;20.90;;;5.70;99.90;;;;;;5053166;28;20425;-53
2022/11/26 05:12:57;;;;;;;52.47;20.20;;;5.80;99.90;;;;;;5052631;28;20413;-55
2022/11/26 05:15:23;;;;;;;55.97;18.83;;;5.80;99.90;;;;;;5051655;28;20463;-57
2022/11/26 05:17:51;;;;;;;49.05;19.63;;;5.90;99.90;;;;;;5052086;28;20417;-57
2022/11/26 05:20:18;;;;;;;58.28;20.58;;;5.70;99.90;;;;;;5052859;28;20440;-56
2022/11/26 05:22:45;;;;;;;57.40;20.23;;;5.70;99.90;;;;;;5052385;28;20785;-55
2022/11/26 05:25:11;;;;;;;46.28;20.33;;;5.80;99.90;;;;;;5052446;28;20904;-56
2022/11/26 05:27:38;;;;;;;59.13;22.52;;;5.80;99.90;;;;;;5060332;28;20423;-54
2022/11/26 05:30:06;;;;;;;58.85;22.52;;;5.70;99.90;;;;;;5060494;28;20475;-57
2022/11/26 05:32:33;;;;;;;61.97;23.90;;;5.60;99.90;;;;;;5052117;28;20500;-57
2022/11/26 05:35:01;;;;;;;61.95;24.75;;;5.60;99.90;;;;;;5052473;28;20753;-55
2022/11/26 05:37:28;;;;;;;67.82;24.20;;;5.60;99.90;;;;;;5052307;28;20830;-55
2022/11/26 05:39:54;;;;;;;58.30;24.53;;;5.60;99.90;;;;;;5053016;28;20421;-55
2022/11/26 05:42:21;;;;;;;69.05;25.63;;;5.70;99.90;;;;;;5052101;28;20413;-57
2022/11/26 05:44:48;;;;;;;68.88;26.95;;;5.60;99.90;;;;;;5051894;28;20424;-58
2022/11/26 05:47:14;;;;;;;63.03;26.27;;;5.60;99.90;;;;;;5051887;28;20416;-57
2022/11/26 05:49:41;;;;;;;68.53;26.92;;;5.50;99.90;;;;;;5052309;28;20467;-57
2022/11/26 05:52:09;;;;;;;74.15;26.95;;;5.50;99.90;;;;;;5051789;28;20487;-57
2022/11/26 05:54:36;;;;;;;61.47;26.33;;;5.50;99.90;;;;;;5051822;28;20475;-55
2022/11/26 05:57:02;;;;;;;76.25;27.40;;;5.50;99.90;;;;;;5051609;28;20413;-55
2022/11/26 05:59:29;;;;;;;70.82;27.00;;;5.50;99.90;;;;;;5060239;28;20425;-53
2022/11/26 06:01:56;;;;;;;64.32;25.50;;;5.50;99.90;;;;;;5071531;28;20457;-57
2022/11/26 06:04:23;;;;;;;71.20;28.80;;;5.50;99.90;;;;;;5071869;28;20419;-53
2022/11/26 06:06:49;;;;;;;70.00;26.73;;;5.40;99.90;;;;;;5071528;28;20415;-57
2022/11/26 06:09:17;;;;;;;67.45;26.80;;;5.50;99.90;;;;;;5071633;28;20412;-56
2022/11/26 06:11:44;;;;;;;73.68;26.27;;;5.40;99.90;;;;;;5071594;28;20441;-56
2022/11/26 06:14:11;;;;;;;68.22;26.55;;;5.50;99.90;;;;;;5071539;28;20457;-55
2022/11/26 06:16:37;;;;;;;74.07;26.88;;;5.50;99.90;;;;;;5071304;28;20419;-55
2022/11/26 06:19:04;;;;;;;72.90;28.07;;;5.50;99.90;;;;;;5071525;28;20415;-57
2022/11/26 06:21:31;;;;;;;78.80;28.77;;;5.40;99.90;;;;;;5071341;28;20407;-55
2022/11/26 06:23:57;;;;;;;70.85;27.10;;;5.40;99.90;;;;;;5071292;28;20416;-55
2022/11/26 06:26:25;;;;;;;79.20;27.55;;;5.40;99.90;;;;;;5070576;28;20416;-57
2022/11/26 06:28:52;;;;;;;76.53;27.52;;;5.40;99.90;;;;;;5062862;28;20428;-57
2022/11/26 06:31:19;;;;;;;84.47;29.00;;;5.40;99.90;;;;;;5056675;28;20425;-56
2022/11/26 06:33:45;;;;;;;77.93;26.73;;;5.40;99.90;;;;;;5052069;28;20414;-56
2022/11/26 06:36:12;;;;;;;73.32;27.20;;;5.50;99.90;;;;;;5051391;28;20429;-58
2022/11/26 06:38:39;;;;;;;72.13;26.77;;;5.50;99.90;;;;;;5051239;28;20888;-57
2022/11/26 06:41:07;;;;;;;63.42;25.42;;;5.50;99.90;;;;;;5051047;28;20414;-57
2022/11/26 06:43:36;;;;;;;76.15;26.02;;;5.40;99.90;;;;;;5051068;28;20490;-56
2022/11/26 06:46:04;;;;;;;76.72;25.38;;;5.40;99.90;;;;;;5050753;28;20413;-55
2022/11/26 06:48:32;;;;;;;69.03;25.10;;;5.40;99.90;;;;;;5050593;28;20478;-58
2022/11/26 06:51:03;;;;;;;73.45;25.73;;;5.40;99.90;;;;;;5050755;28;20425;-57
2022/11/26 06:53:30;;;;;;;74.95;25.67;;;5.40;99.90;;;;;;5051066;28;20417;-58
2022/11/26 06:55:59;;;;;;;75.57;25.55;;;5.40;99.90;;;;;;5050681;28;20416;-58
2022/11/26 06:58:26;;;;;;;77.45;25.30;;;5.40;99.90;;;;;;5058097;28;20445;-54
2022/11/26 07:00:54;;;;;;;66.95;24.02;;;5.40;99.90;;;;;;5062600;28;20415;-55
2022/11/26 07:03:20;;;;;;;80.05;24.60;;;5.50;99.90;;;;;;5070761;28;20415;-57
2022/11/26 07:05:47;;;;;;;74.55;24.52;;;5.40;99.90;;;;;;5070409;28;20469;-56
2022/11/26 07:08:14;;;;;;;66.00;23.67;;;5.40;99.90;;;;;;5070161;28;20415;-55
2022/11/26 07:10:40;;;;;;;70.47;23.52;;;5.50;99.90;;;;;;5070521;28;20407;-55
2022/11/26 07:13:07;;;;;;;68.25;22.98;;;5.50;99.90;;;;;;5070524;28;20411;-56
2022/11/26 07:15:34;;;;;;;70.22;24.25;;;5.50;99.90;;;;;;5070291;28;20420;-56
2022/11/26 07:18:02;;;;;;;71.75;23.65;;;5.40;99.90;;;;;;5070342;28;20426;-56
2022/11/26 07:20:28;;;;;;;63.58;21.90;;;5.40;99.90;;;;;;5070329;28;20415;-54
2022/11/26 07:22:55;;;;;;;59.95;21.52;;;5.50;99.90;;;;;;5070401;28;20465;-57
2022/11/26 07:25:21;;;;;;;64.18;22.10;;;5.50;99.90;;;;;;5070640;28;20462;-58
2022/11/26 07:27:48;;;;;;;61.50;21.48;;;5.50;99.90;;;;;;5068517;28;20462;-57
2022/11/26 07:30:15;;;;;;;64.05;22.40;;;5.60;99.90;;;;;;5058430;28;20447;-55
2022/11/26 07:32:42;;;;;;;64.18;20.52;;;5.70;99.90;;;;;;5050297;28;20425;-55
2022/11/26 07:35:10;;;;;;;61.15;20.83;;;5.60;99.90;;;;;;5050207;28;20417;-56
2022/11/26 07:37:37;;;;;;;63.50;19.73;;;5.70;99.90;;;;;;5050394;28;20478;-57
2022/11/26 07:40:05;;;;;;;63.58;20.10;;;5.70;99.90;;;;;;5053435;28;20409;-56
2022/11/26 07:42:32;;;;;;;46.70;18.38;;;5.70;99.90;;;;;;5054377;28;21116;-53
2022/11/26 07:44:59;;;;;;;51.95;18.23;;;5.80;99.90;;;;;;5054213;28;20409;-57
2022/11/26 07:47:26;;;;;;;48.35;18.67;;;5.80;99.90;;;;;;5054028;28;20424;-53
2022/11/26 07:49:52;;;;;;;46.15;16.98;;;5.90;99.90;;;;;;5054127;28;20436;-56
2022/11/26 07:52:20;;;;;;;51.47;18.77;;;5.90;99.90;;;;;;5054146;28;20907;-56
2022/11/26 07:54:47;;;;;;;47.20;18.27;;;5.90;99.90;;;;;;5054186;28;20463;-58
2022/11/26 07:57:14;;;;;;;50.00;17.90;;;5.90;99.90;;;;;;5053851;28;20420;-55
2022/11/26 07:59:40;;;;;;;46.53;17.60;;;5.90;99.90;;;;;;5063305;28;20808;-56
2022/11/26 08:02:12;;;;;;;44.65;17.50;;;6.00;99.90;;;;;;5074017;28;20886;-58
2022/11/26 08:04:39;;;;;;;45.58;17.33;;;6.00;99.90;;;;;;5073956;28;20411;-58
2022/11/26 08:07:05;;;;;;;46.03;17.48;;;6.00;99.90;;;;;;5073651;28;20415;-58
2022/11/26 08:09:34;;;;;;;47.28;15.63;;;6.00;99.90;;;;;;5073758;28;20510;-57
2022/11/26 08:12:01;;;;;;;40.35;16.30;;;6.10;99.90;;;;;;5073285;28;20431;-57
2022/11/26 08:14:28;;;;;;;45.65;17.00;;;6.10;99.90;;;;;;5073777;28;20481;-52
2022/11/26 08:16:54;;;;;;;35.25;15.60;;;6.10;99.90;;;;;;5073411;28;20476;-55
2022/11/26 08:19:21;;;;;;;39.30;15.55;;;6.10;99.90;;;;;;5073896;28;20423;-57
2022/11/26 08:21:49;;;;;;;38.15;15.48;;;6.10;99.90;;;;;;5073520;28;20415;-56
2022/11/26 08:24:17;;;;;;;43.38;15.65;;;6.20;99.90;;;;;;5073361;28;20890;-56
2022/11/26 08:26:45;;;;;;;43.22;15.23;;;6.10;99.90;;;;;;5073206;28;20913;-57
2022/11/26 08:29:12;;;;;;;32.78;13.98;;;6.20;99.90;;;;;;5065176;28;20441;-58
2022/11/26 08:31:39;;;;;;;36.13;14.45;;;6.20;99.90;;;;;;5056085;28;20487;-57
2022/11/26 08:34:06;;;;;;;42.60;14.63;;;6.20;99.90;;;;;;5053412;28;20410;-53
2022/11/26 08:36:33;;;;;;;36.10;14.02;;;6.30;99.90;;;;;;5053216;28;20424;-57
2022/11/26 08:39:00;;;;;;;33.13;13.85;;;6.30;99.90;;;;;;5053413;28;20911;-56
2022/11/26 08:41:27;;;;;;;35.77;13.70;;;6.50;99.90;;;;;;5053233;28;20804;-57
2022/11/26 08:43:55;;;;;;;32.92;13.15;;;6.50;99.90;;;;;;5053105;28;20463;-55
2022/11/26 08:46:22;;;;;;;34.75;13.38;;;6.50;99.90;;;;;;5052810;28;20424;-57
2022/11/26 08:48:49;;;;;;;35.33;13.25;;;6.60;99.90;;;;;;5053298;28;20431;-55
2022/11/26 08:51:17;;;;;;;29.88;12.77;;;6.60;99.90;;;;;;5052728;28;20923;-58
2022/11/26 08:53:44;;;;;;;34.63;12.85;;;6.60;99.90;;;;;;5053038;28;20513;-54
2022/11/26 08:56:12;;;;;;;29.33;13.45;;;6.70;99.90;;;;;;5052778;28;20520;-52
2022/11/26 08:58:40;;;;;;;27.50;12.48;;;6.70;99.90;;;;;;5060839;28;20416;-56
2022/11/26 09:01:09;;;;;;;29.27;11.93;;;6.80;99.90;;;;;;5065795;28;20806;-57
2022/11/26 09:03:36;;;;;;;34.13;11.85;;;6.90;99.90;;;;;;5072597;28;20420;-54
2022/11/26 09:06:03;;;;;;;30.58;12.05;;;6.90;99.90;;;;;;5072470;28;20420;-55
2022/11/26 09:08:30;;;;;;;34.30;12.13;;;6.90;99.90;;;;;;5072173;28;20788;-55
2022/11/26 09:10:58;;;;;;;23.73;11.32;;;6.90;99.90;;;;;;5072496;28;20434;-57
2022/11/26 09:13:24;;;;;;;29.55;12.02;;;6.90;99.90;;;;;;5072800;28;20766;-58
2022/11/26 09:15:51;;;;;;;30.47;12.03;;;6.90;99.90;;;;;;5072434;28;20416;-57
2022/11/26 09:18:19;;;;;;;28.05;11.65;;;7.00;99.90;;;;;;5072753;28;20473;-60
2022/11/26 09:20:46;;;;;;;28.38;11.30;;;7.00;99.90;;;;;;5072724;28;20465;-59
2022/11/26 09:23:12;;;;;;;27.20;10.52;;;7.10;99.90;;;;;;5072789;28;20407;-60
2022/11/26 09:25:39;;;;;;;25.25;9.65;;;7.20;99.90;;;;;;5072441;28;20446;-60
2022/11/26 09:28:06;;;;;;;25.98;10.90;;;7.40;99.90;;;;;;5067915;28;20487;-56
2022/11/26 09:30:33;;;;;;;27.45;9.85;;;7.40;99.90;;;;;;5061313;28;20463;-60
2022/11/26 09:32:59;;;;;;;20.95;9.52;;;7.50;99.90;;;;;;5052638;28;20518;-59
2022/11/26 09:35:28;;;;;;;22.67;9.45;;;7.70;99.90;;;;;;5052517;28;20413;-60
2022/11/26 09:37:55;;;;;;;27.88;10.10;;;7.70;99.90;;;;;;5051952;28;20421;-60
2022/11/26 09:40:26;;;;;;;20.13;9.63;;;7.80;99.90;;;;;;5052342;28;20428;-60
2022/11/26 09:43:04;;;;;;;17.73;8.60;;;7.90;99.90;;;;;;5052506;28;20422;-58
2022/11/26 09:45:40;;;;;;;24.08;9.55;;;8.00;99.90;;;;;;5052266;28;20467;-60
2022/11/26 09:48:13;;;;;;;18.95;8.88;;;7.90;99.90;;;;;;5052246;28;20957;-60
2022/11/26 09:50:43;;;;;;;22.10;8.63;;;8.00;99.90;;;;;;5051934;28;20768;-60
2022/11/26 09:53:15;;;;;;;22.33;8.23;;;8.20;99.90;;;;;;5052019;28;20483;-59
2022/11/26 09:55:45;;;;;;;22.35;8.00;;;8.30;99.90;;;;;;5051945;28;20458;-60
2022/11/26 09:58:17;;;;;;;19.88;8.15;;;8.10;99.90;;;;;;5057056;28;20845;-60
2022/11/26 10:00:46;;;;;;;15.77;7.20;;;8.30;99.90;;;;;;5063189;28;20511;-60
2022/11/26 10:03:14;;;;;;;18.30;7.63;;;8.40;99.90;;;;;;5071087;28;20423;-60
2022/11/26 10:05:50;;;;;;;21.10;7.03;;;8.40;99.90;;;;;;5071860;28;20422;-60
2022/11/26 10:08:29;;;;;;;21.48;7.75;;;8.60;99.90;;;;;;5071269;28;20828;-59
2022/11/26 10:11:00;;;;;;;16.80;6.03;;;8.60;99.90;;;;;;5071422;28;20469;-60
2022/11/26 10:13:38;;;;;;;14.02;5.50;;;8.60;99.90;;;;;;5071433;28;20427;-60
2022/11/26 10:16:12;;;;;;;17.17;6.00;;;8.60;99.90;;;;;;5071216;28;20411;-57
2022/11/26 10:18:46;;;;;;;17.17;5.70;;;8.70;99.90;;;;;;5071554;28;20492;-60
2022/11/26 10:21:18;;;;;;;15.77;5.18;;;8.70;99.90;;;;;;5071439;28;20419;-60
2022/11/26 10:23:48;;;;;;;13.70;5.10;;;8.70;99.90;;;;;;5071183;28;20412;-60
2022/11/26 10:26:18;;;;;;;18.45;5.60;;;8.70;99.90;;;;;;5071443;28;20427;-60
2022/11/26 10:28:47;;;;;;;14.27;4.80;;;8.60;99.90;;;;;;5062814;28;20496;-60
2022/11/26 10:31:20;;;;;;;14.05;4.75;;;8.70;99.90;;;;;;5057600;28;20413;-60
2022/11/26 10:33:54;;;;;;;14.07;4.88;;;8.70;99.90;;;;;;5050965;28;20936;-60
2022/11/26 10:36:25;;;;;;;15.80;4.70;;;8.80;99.90;;;;;;5050963;28;20754;-60
2022/11/26 10:38:55;;;;;;;13.43;4.60;;;8.80;99.90;;;;;;5051301;28;20421;-60
2022/11/26 10:41:23;;;;;;;15.20;4.78;;;8.80;99.90;;;;;;5051337;28;20785;-60
2022/11/26 10:43:49;;;;;;;16.70;4.87;;;8.90;99.90;;;;;;5050790;28;20414;-60
2022/11/26 10:46:31;;;;;;;13.57;4.68;;;8.90;99.90;;;;;;5050925;28;20413;-60
2022/11/26 10:49:16;;;;;;;21.63;7.07;;;8.90;99.90;;;;;;5050856;28;20417;-60
2022/11/26 10:51:47;;;;;;;17.92;5.38;;;8.80;99.90;;;;;;5044655;28;20909;-60
2022/11/26 10:54:24;;;;;;;13.30;5.07;;;8.70;99.90;;;;;;5055883;28;20483;-62
2022/11/26 10:56:52;;;;;;;14.10;4.50;;;8.80;99.90;;;;;;5051207;28;20463;-61
2022/11/26 10:59:23;;;;;;;21.50;5.57;;;8.70;99.90;;;;;;5058470;28;20956;-61
2022/11/26 11:01:52;;;;;;;14.32;5.20;;;8.80;99.90;;;;;;5069385;28;20473;-62
2022/11/26 11:04:30;;;;;;;17.42;4.97;;;8.80;99.90;;;;;;5070823;28;20423;-62
2022/11/26 11:06:58;;;;;;;14.68;4.63;;;8.90;99.90;;;;;;5070062;28;20461;-64
2022/11/26 11:09:28;;;;;;;15.68;5.25;;;9.10;99.90;;;;;;5070349;28;20411;-65
2022/11/26 11:12:16;;;;;;;17.20;5.65;;;9.40;99.90;;;;;;5070123;28;20416;-65
2022/11/26 11:14:43;;;;;;;14.45;5.40;;;9.60;99.90;;;;;;5069550;28;20411;-64
2022/11/26 11:17:34;;;;;;;15.50;4.73;;;9.90;99.90;;;;;;5070165;28;20458;-64
2022/11/26 11:20:25;;;;;;;13.80;4.80;;;9.90;65.00;;;;;;5067135;28;20517;-65
2022/11/26 11:23:00;;;;;;;16.50;4.85;;;9.70;57.90;;;;;;5070197;28;20400;-64
2022/11/26 11:25:29;;;;;;;16.02;4.72;;;9.80;96.90;;;;;;5070292;28;20419;-64
2022/11/26 11:28:02;;;;;;;16.40;4.70;;;9.80;90.50;;;;;;5066730;28;20421;-63
2022/11/26 11:30:33;;;;;;;16.50;4.55;;;9.90;73.20;;;;;;5058315;28;20413;-64
2022/11/26 11:33:18;;;;;;;12.95;4.35;;;10.00;67.60;;;;;;5050027;28;20425;-62
2022/11/26 11:35:45;;;;;;;14.63;4.05;;;9.90;64.20;;;;;;5050317;28;20436;-63
2022/11/26 11:38:23;;;;;;;15.70;4.23;;;9.90;53.60;;;;;;5049681;28;20831;-61
2022/11/26 11:40:50;;;;;;;16.58;4.90;;;10.00;68.20;;;;;;5049934;28;20478;-62
2022/11/26 11:43:18;;;;;;;14.88;4.20;;;10.10;60.40;;;;;;5049790;28;20414;-61
2022/11/26 11:45:55;;;;;;;12.07;4.30;;;9.90;62.30;;;;;;5051241;28;20538;-62
2022/11/26 11:48:31;;;;;;;13.43;4.00;;;10.10;72.10;;;;;;5069955;28;20419;-62
2022/11/26 11:51:10;;;;;;;16.92;4.70;;;10.10;55.70;;;;;;5069829;28;20423;-61
2022/11/26 11:53:46;;;;;;;12.77;4.30;;;10.10;42.10;;;;;;5069755;28;20427;-62
2022/11/26 11:56:24;;;;;;;14.70;4.37;;;9.90;59.40;;;;;;5069654;28;20462;-61
2022/11/26 11:59:13;;;;;;;15.40;4.80;;;9.80;49.90;;;;;;5061519;28;20470;-62
2022/11/26 12:01:58;;;;;;;15.63;4.57;;;9.90;68.70;;;;;;5051869;28;20496;-62
2022/11/26 12:04:43;;;;;;;14.52;4.47;;;9.90;50.70;;;;;;5049307;28;20409;-64
2022/11/26 12:07:28;;;;;;;14.85;4.85;;;9.70;60.70;;;;;;5049896;28;20429;-60
2022/11/26 12:10:08;;;;;;;15.18;4.40;;;9.70;77.00;;;;;;5049900;28;20471;-60
2022/11/26 12:12:38;;;;;;;15.82;4.88;;;9.80;80.40;;;;;;5050205;28;20814;-60
2022/11/26 12:15:10;;;;;;;12.95;4.47;;;9.90;73.50;;;;;;5049909;28;20416;-60
2022/11/26 12:17:43;;;;;;;18.23;4.78;;;9.80;66.30;;;;;;5049889;28;20911;-60
2022/11/26 12:20:22;;;;;;;16.92;4.78;;;9.80;83.20;;;;;;5050371;28;20500;-61
2022/11/26 12:22:56;;;;;;;17.00;4.40;;;9.80;74.10;;;;;;5050013;28;20418;-60
2022/11/26 12:25:29;;;;;;;15.85;4.57;;;9.80;90.30;;;;;;5051814;28;20463;-61
2022/11/26 12:28:00;;;;;;;15.15;4.50;;;9.80;82.80;;;;;;5056347;28;20803;-60
2022/11/26 12:30:35;;;;;;;16.02;3.92;;;9.70;90.30;;;;;;5064511;28;20422;-59
2022/11/26 12:33:06;;;;;;;24.85;9.13;;;9.70;90.80;;;;;;5073097;28;20778;-61
2022/11/26 12:35:36;;;;;;;20.63;6.18;;;9.70;90.10;;;;;;5073535;28;20907;-61
2022/11/26 12:38:07;;;;;;;18.67;4.60;;;9.70;84.00;;;;;;5072996;28;21137;-61
2022/11/26 12:40:40;;;;;;;14.40;4.55;;;9.60;79.70;;;;;;5073356;28;20452;-62
2022/11/26 12:43:14;;;;;;;14.90;4.10;;;9.60;91.40;;;;;;5073272;28;20813;-61
2022/11/26 12:45:50;;;;;;;12.55;4.05;;;9.80;91.20;;;;;;5073056;28;20461;-62
2022/11/26 12:48:43;;;;;;;16.00;4.45;;;9.80;84.60;;;;;;5073170;28;20477;-62
2022/11/26 12:51:19;;;;;;;16.58;3.95;;;9.80;83.40;;;;;;5054003;28;20870;-62